sensor_id;sensor_type;location;lat;lon;timestamp;temperature;humidity
3996;DHT22;2012;49.794;9.722;2023-08-07T00:02:20;13.30;99.90
3996;DHT22;2012;49.794;9.722;2023-08-07T00:04:47;13.20;99.90
3996;DHT22;2012;49.794;9.722;2023-08-07T00:07:13;13.20;99.90
3996;DHT22;2012;49.794;9.722;2023-08-07T00:09:40;13.30;99.90
3996;DHT22;2012;49.794;9.722;2023-08-07T00:12:08;13.20;99.90
3996;DHT22;2012;49.794;9.722;2023-08-07T00:14:35;13.20;99.90
3996;DHT22;2012;49.794;9.722;2023-08-07T00:17:02;13.30;99.90
3996;DHT22;2012;49.794;9.722;2023-08-07T00:19:31;13.20;99.90
3996;DHT22;2012;49.794;9.722;2023-08-07T00:21:58;13.20;99.90
3996;DHT22;2012;49.794;9.722;2023-08-07T00:24:24;13.20;99.90
3996;DHT22;2012;49.794;9.722;2023-08-07T00:26:51;13.20;99.90
3996;DHT22;2012;49.794;9.722;2023-08-07T00:29:19;13.20;99.90
3996;DHT22;2012;49.794;9.722;2023-08-07T00:31:46;13.20;99.90
3996;DHT22;2012;49.794;9.722;2023-08-07T00:34:13;13.20;99.90
3996;DHT22;2012;49.794;9.722;2023-08-07T00:36:40;13.20;99.90
3996;DHT22;2012;49.794;9.722;2023-08-07T00:39:07;13.20;99.90
3996;DHT22;2012;49.794;9.722;2023-08-07T00:41:38;13.20;99.90
3996;DHT22;2012;49.794;9.722;2023-08-07T00:44:05;13.20;99.90
3996;DHT22;2012;49.794;9.722;2023-08-07T00:46:33;13.10;99.90
3996;DHT22;2012;49.794;9.722;2023-08-07T00:49:00;13.10;99.90
3996;DHT22;2012;49.794;9.722;2023-08-07T00:51:28;13.10;99.90
3996;DHT22;2012;49.794;9.722;2023-08-07T00:53:56;13.10;99.90
3996;DHT22;2012;49.794;9.722;2023-08-07T00:56:23;13.10;99.90
3996;DHT22;2012;49.794;9.722;2023-08-07T00:58:50;13.10;99.90
3996;DHT22;2012;49.794;9.722;2023-08-07T01:01:17;13.10;99.90
3996;DHT22;2012;49.794;9.722;2023-08-07T01:03:45;13.10;99.90
3996;DHT22;2012;49.794;9.722;2023-08-07T01:06:13;13.10;99.90
3996;DHT22;2012;49.794;9.722;2023-08-07T01:08:39;13.10;99.90
3996;DHT22;2012;49.794;9.722;2023-08-07T01:11:22;13.10;99.90
3996;DHT22;2012;49.794;9.722;2023-08-07T01:14:25;13.00;99.90
3996;DHT22;2012;49.794;9.722;2023-08-07T01:17:05;13.10;99.90
3996;DHT22;2012;49.794;9.722;2023-08-07T01:19:34;13.10;99.90
3996;DHT22;2012;49.794;9.722;2023-08-07T01:22:13;13.00;99.90
3996;DHT22;2012;49.794;9.722;2023-08-07T01:24:50;13.00;99.90
3996;DHT22;2012;49.794;9.722;2023-08-07T01:35:30;13.00;99.90
3996;DHT22;2012;49.794;9.722;2023-08-07T01:38:00;13.00;99.90
3996;DHT22;2012;49.794;9.722;2023-08-07T01:40:28;13.00;99.90
3996;DHT22;2012;49.794;9.722;2023-08-07T01:42:56;13.00;99.90
3996;DHT22;2012;49.794;9.722;2023-08-07T01:45:24;13.00;99.90
3996;DHT22;2012;49.794;9.722;2023-08-07T01:47:51;13.00;99.90
3996;DHT22;2012;49.794;9.722;2023-08-07T01:50:23;12.90;99.90
3996;DHT22;2012;49.794;9.722;2023-08-07T01:52:52;12.90;99.90
3996;DHT22;2012;49.794;9.722;2023-08-07T01:55:20;12.90;99.90
3996;DHT22;2012;49.794;9.722;2023-08-07T01:57:51;12.80;99.90
3996;DHT22;2012;49.794;9.722;2023-08-07T02:00:18;12.80;99.90
3996;DHT22;2012;49.794;9.722;2023-08-07T02:02:45;12.80;99.90
3996;DHT22;2012;49.794;9.722;2023-08-07T02:05:14;12.80;99.90
3996;DHT22;2012;49.794;9.722;2023-08-07T02:07:41;12.80;99.90
3996;DHT22;2012;49.794;9.722;2023-08-07T02:10:09;12.90;99.90
3996;DHT22;2012;49.794;9.722;2023-08-07T02:12:35;12.80;99.90
3996;DHT22;2012;49.794;9.722;2023-08-07T02:15:03;12.90;99.90
3996;DHT22;2012;49.794;9.722;2023-08-07T02:17:30;12.90;99.90
3996;DHT22;2012;49.794;9.722;2023-08-07T02:19:57;12.80;99.90
3996;DHT22;2012;49.794;9.722;2023-08-07T02:22:24;12.90;99.90
3996;DHT22;2012;49.794;9.722;2023-08-07T02:24:52;12.80;99.90
3996;DHT22;2012;49.794;9.722;2023-08-07T02:27:18;12.80;99.90
3996;DHT22;2012;49.794;9.722;2023-08-07T02:29:46;12.80;99.90
3996;DHT22;2012;49.794;9.722;2023-08-07T02:32:13;12.80;99.90
3996;DHT22;2012;49.794;9.722;2023-08-07T02:34:40;12.80;99.90
3996;DHT22;2012;49.794;9.722;2023-08-07T02:37:07;12.80;99.90
3996;DHT22;2012;49.794;9.722;2023-08-07T02:39:35;12.80;99.90
3996;DHT22;2012;49.794;9.722;2023-08-07T02:42:02;12.80;99.90
3996;DHT22;2012;49.794;9.722;2023-08-07T02:44:30;12.70;99.90
3996;DHT22;2012;49.794;9.722;2023-08-07T02:46:57;12.70;99.90
3996;DHT22;2012;49.794;9.722;2023-08-07T02:49:24;12.80;99.90
3996;DHT22;2012;49.794;9.722;2023-08-07T02:51:52;12.80;99.90
3996;DHT22;2012;49.794;9.722;2023-08-07T02:54:19;12.80;99.90
3996;DHT22;2012;49.794;9.722;2023-08-07T02:56:45;12.70;99.90
3996;DHT22;2012;49.794;9.722;2023-08-07T02:59:12;12.70;99.90
3996;DHT22;2012;49.794;9.722;2023-08-07T03:01:39;12.70;99.90
3996;DHT22;2012;49.794;9.722;2023-08-07T03:04:06;12.70;99.90
3996;DHT22;2012;49.794;9.722;2023-08-07T03:06:33;12.70;99.90
3996;DHT22;2012;49.794;9.722;2023-08-07T03:09:00;12.70;99.90
3996;DHT22;2012;49.794;9.722;2023-08-07T03:11:27;12.80;99.90
3996;DHT22;2012;49.794;9.722;2023-08-07T03:13:54;12.80;99.90
3996;DHT22;2012;49.794;9.722;2023-08-07T03:16:21;12.70;99.90
3996;DHT22;2012;49.794;9.722;2023-08-07T03:18:48;12.70;99.90
3996;DHT22;2012;49.794;9.722;2023-08-07T03:21:15;12.70;99.90
3996;DHT22;2012;49.794;9.722;2023-08-07T03:23:42;12.70;99.90
3996;DHT22;2012;49.794;9.722;2023-08-07T03:26:11;12.70;99.90
3996;DHT22;2012;49.794;9.722;2023-08-07T03:28:46;12.60;99.90
3996;DHT22;2012;49.794;9.722;2023-08-07T03:31:14;12.70;99.90
3996;DHT22;2012;49.794;9.722;2023-08-07T03:33:42;12.70;99.90
3996;DHT22;2012;49.794;9.722;2023-08-07T03:36:11;12.60;99.90
3996;DHT22;2012;49.794;9.722;2023-08-07T03:38:39;12.60;99.90
3996;DHT22;2012;49.794;9.722;2023-08-07T03:41:07;12.60;99.90
3996;DHT22;2012;49.794;9.722;2023-08-07T03:43:35;12.70;99.90
3996;DHT22;2012;49.794;9.722;2023-08-07T03:46:02;12.60;99.90
3996;DHT22;2012;49.794;9.722;2023-08-07T03:48:30;12.60;99.90
3996;DHT22;2012;49.794;9.722;2023-08-07T03:51:06;12.60;99.90
3996;DHT22;2012;49.794;9.722;2023-08-07T03:53:40;12.60;99.90
3996;DHT22;2012;49.794;9.722;2023-08-07T03:56:07;12.60;99.90
3996;DHT22;2012;49.794;9.722;2023-08-07T03:58:35;12.60;99.90
3996;DHT22;2012;49.794;9.722;2023-08-07T04:01:02;12.60;99.90
3996;DHT22;2012;49.794;9.722;2023-08-07T04:03:30;12.60;99.90
3996;DHT22;2012;49.794;9.722;2023-08-07T04:05:58;12.60;99.90
3996;DHT22;2012;49.794;9.722;2023-08-07T04:08:27;12.60;99.90
3996;DHT22;2012;49.794;9.722;2023-08-07T04:11:01;12.50;99.90
3996;DHT22;2012;49.794;9.722;2023-08-07T04:13:29;12.60;99.90
3996;DHT22;2012;49.794;9.722;2023-08-07T04:15:56;12.60;99.90
3996;DHT22;2012;49.794;9.722;2023-08-07T04:18:24;12.50;99.90
3996;DHT22;2012;49.794;9.722;2023-08-07T04:20:53;12.50;99.90
3996;DHT22;2012;49.794;9.722;2023-08-07T04:23:20;12.50;99.90
3996;DHT22;2012;49.794;9.722;2023-08-07T04:25:48;12.50;99.90
3996;DHT22;2012;49.794;9.722;2023-08-07T04:28:16;12.60;99.90
3996;DHT22;2012;49.794;9.722;2023-08-07T04:30:44;12.50;99.90
3996;DHT22;2012;49.794;9.722;2023-08-07T04:33:11;12.60;99.90
3996;DHT22;2012;49.794;9.722;2023-08-07T04:35:39;12.50;99.90
3996;DHT22;2012;49.794;9.722;2023-08-07T04:38:06;12.50;99.90
3996;DHT22;2012;49.794;9.722;2023-08-07T04:40:33;12.50;99.90
3996;DHT22;2012;49.794;9.722;2023-08-07T04:43:00;12.60;99.90
3996;DHT22;2012;49.794;9.722;2023-08-07T04:45:28;12.60;99.90
3996;DHT22;2012;49.794;9.722;2023-08-07T04:47:55;12.50;99.90
3996;DHT22;2012;49.794;9.722;2023-08-07T04:50:22;12.50;99.90
3996;DHT22;2012;49.794;9.722;2023-08-07T04:52:49;12.60;99.90
3996;DHT22;2012;49.794;9.722;2023-08-07T04:55:15;12.50;99.90
3996;DHT22;2012;49.794;9.722;2023-08-07T04:57:43;12.60;99.90
3996;DHT22;2012;49.794;9.722;2023-08-07T05:00:10;12.50;99.90
3996;DHT22;2012;49.794;9.722;2023-08-07T05:02:37;12.50;99.90
3996;DHT22;2012;49.794;9.722;2023-08-07T05:05:04;12.60;99.90
3996;DHT22;2012;49.794;9.722;2023-08-07T05:07:33;12.60;99.90
3996;DHT22;2012;49.794;9.722;2023-08-07T05:10:04;12.60;99.90
3996;DHT22;2012;49.794;9.722;2023-08-07T05:12:31;12.60;99.90
3996;DHT22;2012;49.794;9.722;2023-08-07T05:14:58;12.60;99.90
3996;DHT22;2012;49.794;9.722;2023-08-07T05:17:24;12.60;99.90
3996;DHT22;2012;49.794;9.722;2023-08-07T05:19:52;12.50;99.90
3996;DHT22;2012;49.794;9.722;2023-08-07T05:22:19;12.80;99.90
3996;DHT22;2012;49.794;9.722;2023-08-07T05:24:46;12.60;99.90
3996;DHT22;2012;49.794;9.722;2023-08-07T05:27:15;12.60;99.90
3996;DHT22;2012;49.794;9.722;2023-08-07T05:29:42;12.60;99.90
3996;DHT22;2012;49.794;9.722;2023-08-07T05:32:14;12.60;99.90
3996;DHT22;2012;49.794;9.722;2023-08-07T05:34:41;12.60;99.90
3996;DHT22;2012;49.794;9.722;2023-08-07T05:37:08;12.60;99.90
3996;DHT22;2012;49.794;9.722;2023-08-07T05:39:35;12.50;99.90
3996;DHT22;2012;49.794;9.722;2023-08-07T05:46:16;12.60;99.90
3996;DHT22;2012;49.794;9.722;2023-08-07T05:48:42;12.60;99.90
3996;DHT22;2012;49.794;9.722;2023-08-07T05:51:09;12.60;99.90
3996;DHT22;2012;49.794;9.722;2023-08-07T05:53:36;12.50;99.90
3996;DHT22;2012;49.794;9.722;2023-08-07T05:56:03;12.60;99.90
3996;DHT22;2012;49.794;9.722;2023-08-07T05:58:30;12.50;99.90
3996;DHT22;2012;49.794;9.722;2023-08-07T06:00:58;12.50;99.90
3996;DHT22;2012;49.794;9.722;2023-08-07T06:03:25;12.50;99.90
3996;DHT22;2012;49.794;9.722;2023-08-07T06:05:52;12.60;99.90
3996;DHT22;2012;49.794;9.722;2023-08-07T06:08:18;12.60;99.90
3996;DHT22;2012;49.794;9.722;2023-08-07T06:10:45;12.60;99.90
3996;DHT22;2012;49.794;9.722;2023-08-07T06:13:12;12.60;99.90
3996;DHT22;2012;49.794;9.722;2023-08-07T06:15:48;12.60;99.90
3996;DHT22;2012;49.794;9.722;2023-08-07T06:18:15;12.60;99.90
3996;DHT22;2012;49.794;9.722;2023-08-07T06:20:42;12.70;99.90
3996;DHT22;2012;49.794;9.722;2023-08-07T06:23:09;12.70;99.90
3996;DHT22;2012;49.794;9.722;2023-08-07T06:25:36;12.70;99.90
3996;DHT22;2012;49.794;9.722;2023-08-07T06:28:03;12.70;99.90
3996;DHT22;2012;49.794;9.722;2023-08-07T06:30:33;12.80;99.90
3996;DHT22;2012;49.794;9.722;2023-08-07T06:33:00;12.80;99.90
3996;DHT22;2012;49.794;9.722;2023-08-07T06:35:27;12.80;99.90
3996;DHT22;2012;49.794;9.722;2023-08-07T06:37:54;12.90;99.90
3996;DHT22;2012;49.794;9.722;2023-08-07T06:40:21;12.90;99.90
3996;DHT22;2012;49.794;9.722;2023-08-07T06:42:47;13.00;99.90
3996;DHT22;2012;49.794;9.722;2023-08-07T06:45:14;13.00;99.90
3996;DHT22;2012;49.794;9.722;2023-08-07T06:47:41;13.10;99.90
3996;DHT22;2012;49.794;9.722;2023-08-07T06:50:08;13.10;99.90
3996;DHT22;2012;49.794;9.722;2023-08-07T06:52:35;13.00;99.90
3996;DHT22;2012;49.794;9.722;2023-08-07T06:55:02;13.00;99.90
3996;DHT22;2012;49.794;9.722;2023-08-07T06:57:29;13.00;99.90
3996;DHT22;2012;49.794;9.722;2023-08-07T06:59:56;13.00;99.90
3996;DHT22;2012;49.794;9.722;2023-08-07T07:02:23;13.00;99.90
3996;DHT22;2012;49.794;9.722;2023-08-07T07:04:50;13.00;99.90
3996;DHT22;2012;49.794;9.722;2023-08-07T07:07:17;13.10;99.90
3996;DHT22;2012;49.794;9.722;2023-08-07T07:09:44;13.10;99.90
3996;DHT22;2012;49.794;9.722;2023-08-07T07:12:11;13.20;99.90
3996;DHT22;2012;49.794;9.722;2023-08-07T07:14:38;13.10;99.90
3996;DHT22;2012;49.794;9.722;2023-08-07T07:17:05;13.10;99.90
3996;DHT22;2012;49.794;9.722;2023-08-07T07:19:31;13.10;99.90
3996;DHT22;2012;49.794;9.722;2023-08-07T07:21:58;13.10;99.90
3996;DHT22;2012;49.794;9.722;2023-08-07T07:24:25;13.00;99.90
3996;DHT22;2012;49.794;9.722;2023-08-07T07:26:52;13.10;99.90
3996;DHT22;2012;49.794;9.722;2023-08-07T07:29:20;13.10;99.90
3996;DHT22;2012;49.794;9.722;2023-08-07T07:31:49;13.20;99.90
3996;DHT22;2012;49.794;9.722;2023-08-07T07:34:16;13.20;99.90
3996;DHT22;2012;49.794;9.722;2023-08-07T07:36:43;13.20;99.90
3996;DHT22;2012;49.794;9.722;2023-08-07T07:39:09;13.10;99.90
3996;DHT22;2012;49.794;9.722;2023-08-07T07:41:36;13.10;99.90
3996;DHT22;2012;49.794;9.722;2023-08-07T07:44:03;13.20;99.90
3996;DHT22;2012;49.794;9.722;2023-08-07T07:46:30;13.20;99.90
3996;DHT22;2012;49.794;9.722;2023-08-07T07:48:59;13.20;99.90
3996;DHT22;2012;49.794;9.722;2023-08-07T07:51:26;13.20;99.90
3996;DHT22;2012;49.794;9.722;2023-08-07T07:53:53;13.20;99.90
3996;DHT22;2012;49.794;9.722;2023-08-07T07:56:39;13.20;99.90
3996;DHT22;2012;49.794;9.722;2023-08-07T07:59:05;13.20;99.90
3996;DHT22;2012;49.794;9.722;2023-08-07T08:01:35;13.20;99.90
3996;DHT22;2012;49.794;9.722;2023-08-07T08:04:02;13.20;99.90
3996;DHT22;2012;49.794;9.722;2023-08-07T08:06:29;13.20;99.90
3996;DHT22;2012;49.794;9.722;2023-08-07T08:08:57;13.20;99.90
3996;DHT22;2012;49.794;9.722;2023-08-07T08:11:24;13.10;99.90
3996;DHT22;2012;49.794;9.722;2023-08-07T08:13:51;13.20;99.90
3996;DHT22;2012;49.794;9.722;2023-08-07T08:16:18;13.20;99.90
3996;DHT22;2012;49.794;9.722;2023-08-07T08:18:46;13.20;99.90
3996;DHT22;2012;49.794;9.722;2023-08-07T08:21:13;13.10;99.90
3996;DHT22;2012;49.794;9.722;2023-08-07T08:23:40;13.10;99.90
3996;DHT22;2012;49.794;9.722;2023-08-07T08:26:07;13.20;99.90
3996;DHT22;2012;49.794;9.722;2023-08-07T08:28:34;13.10;99.90
3996;DHT22;2012;49.794;9.722;2023-08-07T08:31:01;13.20;99.90
3996;DHT22;2012;49.794;9.722;2023-08-07T08:33:28;13.20;99.90
3996;DHT22;2012;49.794;9.722;2023-08-07T08:35:55;13.10;99.90
3996;DHT22;2012;49.794;9.722;2023-08-07T08:38:22;13.20;99.90
3996;DHT22;2012;49.794;9.722;2023-08-07T08:40:51;13.20;99.90
3996;DHT22;2012;49.794;9.722;2023-08-07T08:43:19;13.20;99.90
3996;DHT22;2012;49.794;9.722;2023-08-07T08:45:46;13.20;99.90
3996;DHT22;2012;49.794;9.722;2023-08-07T08:48:19;13.20;99.90
3996;DHT22;2012;49.794;9.722;2023-08-07T08:50:49;13.20;99.90
3996;DHT22;2012;49.794;9.722;2023-08-07T08:53:17;13.20;99.90
3996;DHT22;2012;49.794;9.722;2023-08-07T08:55:44;13.30;99.90
3996;DHT22;2012;49.794;9.722;2023-08-07T08:58:15;13.30;99.90
3996;DHT22;2012;49.794;9.722;2023-08-07T09:00:43;13.30;99.90
3996;DHT22;2012;49.794;9.722;2023-08-07T09:03:10;13.30;99.90
3996;DHT22;2012;49.794;9.722;2023-08-07T09:05:39;13.40;99.90
3996;DHT22;2012;49.794;9.722;2023-08-07T09:08:07;13.40;99.90
3996;DHT22;2012;49.794;9.722;2023-08-07T09:10:35;13.40;99.90
3996;DHT22;2012;49.794;9.722;2023-08-07T09:13:04;13.40;99.90
3996;DHT22;2012;49.794;9.722;2023-08-07T09:15:33;13.40;99.90
3996;DHT22;2012;49.794;9.722;2023-08-07T09:18:00;13.40;99.90
3996;DHT22;2012;49.794;9.722;2023-08-07T09:20:29;13.40;99.90
3996;DHT22;2012;49.794;9.722;2023-08-07T09:22:56;13.40;99.90
3996;DHT22;2012;49.794;9.722;2023-08-07T09:25:33;13.50;99.90
3996;DHT22;2012;49.794;9.722;2023-08-07T09:28:05;13.50;99.90
3996;DHT22;2012;49.794;9.722;2023-08-07T09:30:34;13.50;99.90
3996;DHT22;2012;49.794;9.722;2023-08-07T09:33:02;13.50;99.90
3996;DHT22;2012;49.794;9.722;2023-08-07T09:35:30;13.50;99.90
3996;DHT22;2012;49.794;9.722;2023-08-07T09:37:58;13.50;99.90
3996;DHT22;2012;49.794;9.722;2023-08-07T09:40:25;13.60;99.90
3996;DHT22;2012;49.794;9.722;2023-08-07T09:42:53;13.60;99.90
3996;DHT22;2012;49.794;9.722;2023-08-07T09:45:25;13.60;99.90
3996;DHT22;2012;49.794;9.722;2023-08-07T09:48:00;13.80;99.90
3996;DHT22;2012;49.794;9.722;2023-08-07T09:50:28;13.80;99.90
3996;DHT22;2012;49.794;9.722;2023-08-07T09:52:55;13.80;99.90
3996;DHT22;2012;49.794;9.722;2023-08-07T09:55:22;13.90;99.90
3996;DHT22;2012;49.794;9.722;2023-08-07T09:57:50;13.90;99.90
3996;DHT22;2012;49.794;9.722;2023-08-07T10:00:19;13.80;99.90
3996;DHT22;2012;49.794;9.722;2023-08-07T10:02:50;13.90;99.90
3996;DHT22;2012;49.794;9.722;2023-08-07T10:05:17;13.90;99.90
3996;DHT22;2012;49.794;9.722;2023-08-07T10:07:44;13.90;99.90
3996;DHT22;2012;49.794;9.722;2023-08-07T10:10:14;13.80;99.90
3996;DHT22;2012;49.794;9.722;2023-08-07T10:12:41;13.90;99.90
3996;DHT22;2012;49.794;9.722;2023-08-07T10:15:08;14.00;99.90
3996;DHT22;2012;49.794;9.722;2023-08-07T10:17:36;14.10;99.90
3996;DHT22;2012;49.794;9.722;2023-08-07T10:20:03;14.10;99.90
3996;DHT22;2012;49.794;9.722;2023-08-07T10:22:32;14.20;99.90
3996;DHT22;2012;49.794;9.722;2023-08-07T10:25:02;14.20;99.90
3996;DHT22;2012;49.794;9.722;2023-08-07T10:27:35;14.20;99.90
3996;DHT22;2012;49.794;9.722;2023-08-07T10:30:06;14.10;99.90
3996;DHT22;2012;49.794;9.722;2023-08-07T10:32:34;14.10;99.90
3996;DHT22;2012;49.794;9.722;2023-08-07T10:35:03;14.10;99.90
3996;DHT22;2012;49.794;9.722;2023-08-07T10:37:41;14.00;99.90
3996;DHT22;2012;49.794;9.722;2023-08-07T10:40:15;14.10;99.90
3996;DHT22;2012;49.794;9.722;2023-08-07T10:45:22;14.20;99.90
3996;DHT22;2012;49.794;9.722;2023-08-07T10:48:02;14.20;99.90
3996;DHT22;2012;49.794;9.722;2023-08-07T10:50:31;14.10;99.90
3996;DHT22;2012;49.794;9.722;2023-08-07T10:53:02;14.10;99.90
3996;DHT22;2012;49.794;9.722;2023-08-07T10:55:48;14.10;99.90
3996;DHT22;2012;49.794;9.722;2023-08-07T10:58:32;14.10;99.90
3996;DHT22;2012;49.794;9.722;2023-08-07T11:04:14;14.10;99.90
3996;DHT22;2012;49.794;9.722;2023-08-07T11:06:42;14.10;99.90
3996;DHT22;2012;49.794;9.722;2023-08-07T11:09:10;14.20;99.90
3996;DHT22;2012;49.794;9.722;2023-08-07T11:11:45;14.10;99.90
3996;DHT22;2012;49.794;9.722;2023-08-07T11:14:17;14.20;99.90
3996;DHT22;2012;49.794;9.722;2023-08-07T11:16:45;14.20;99.90
3996;DHT22;2012;49.794;9.722;2023-08-07T11:19:18;14.20;99.90
3996;DHT22;2012;49.794;9.722;2023-08-07T11:21:47;14.20;99.90
3996;DHT22;2012;49.794;9.722;2023-08-07T11:24:16;14.20;99.90
3996;DHT22;2012;49.794;9.722;2023-08-07T11:26:45;14.20;99.90
3996;DHT22;2012;49.794;9.722;2023-08-07T11:29:17;14.30;99.90
3996;DHT22;2012;49.794;9.722;2023-08-07T11:31:44;14.30;99.90
3996;DHT22;2012;49.794;9.722;2023-08-07T11:34:11;14.20;99.90
3996;DHT22;2012;49.794;9.722;2023-08-07T11:36:42;14.30;99.90
3996;DHT22;2012;49.794;9.722;2023-08-07T11:39:10;14.20;99.90
3996;DHT22;2012;49.794;9.722;2023-08-07T11:41:37;14.20;99.90
3996;DHT22;2012;49.794;9.722;2023-08-07T11:44:07;14.20;99.90
3996;DHT22;2012;49.794;9.722;2023-08-07T11:46:34;14.10;99.90
3996;DHT22;2012;49.794;9.722;2023-08-07T11:49:00;14.30;99.90
3996;DHT22;2012;49.794;9.722;2023-08-07T11:51:28;14.20;99.90
3996;DHT22;2012;49.794;9.722;2023-08-07T11:53:56;14.20;99.90
3996;DHT22;2012;49.794;9.722;2023-08-07T11:56:25;14.20;99.90
3996;DHT22;2012;49.794;9.722;2023-08-07T11:58:52;14.20;99.90
3996;DHT22;2012;49.794;9.722;2023-08-07T12:01:24;14.30;99.90
3996;DHT22;2012;49.794;9.722;2023-08-07T12:03:55;14.30;99.90
3996;DHT22;2012;49.794;9.722;2023-08-07T12:06:26;14.30;99.90
3996;DHT22;2012;49.794;9.722;2023-08-07T12:08:57;14.30;99.90
3996;DHT22;2012;49.794;9.722;2023-08-07T12:11:24;14.20;99.90
3996;DHT22;2012;49.794;9.722;2023-08-07T12:13:51;14.20;99.90
3996;DHT22;2012;49.794;9.722;2023-08-07T12:16:18;14.30;99.90
3996;DHT22;2012;49.794;9.722;2023-08-07T12:18:50;14.30;99.90
3996;DHT22;2012;49.794;9.722;2023-08-07T12:21:22;14.40;99.90
3996;DHT22;2012;49.794;9.722;2023-08-07T12:23:54;14.30;99.90
3996;DHT22;2012;49.794;9.722;2023-08-07T12:26:22;14.30;99.90
3996;DHT22;2012;49.794;9.722;2023-08-07T12:28:49;14.30;99.90
3996;DHT22;2012;49.794;9.722;2023-08-07T12:31:17;14.20;99.90
3996;DHT22;2012;49.794;9.722;2023-08-07T12:33:44;14.30;99.90
3996;DHT22;2012;49.794;9.722;2023-08-07T12:36:11;14.30;99.90
3996;DHT22;2012;49.794;9.722;2023-08-07T12:38:43;14.40;99.90
3996;DHT22;2012;49.794;9.722;2023-08-07T12:41:09;14.40;99.90
3996;DHT22;2012;49.794;9.722;2023-08-07T12:43:56;14.50;99.90
3996;DHT22;2012;49.794;9.722;2023-08-07T12:46:23;14.40;99.90
3996;DHT22;2012;49.794;9.722;2023-08-07T12:48:53;14.50;99.90
3996;DHT22;2012;49.794;9.722;2023-08-07T12:51:20;14.50;99.90
3996;DHT22;2012;49.794;9.722;2023-08-07T12:53:47;14.60;99.90
3996;DHT22;2012;49.794;9.722;2023-08-07T12:56:14;14.60;99.90
3996;DHT22;2012;49.794;9.722;2023-08-07T12:58:41;14.70;99.90
3996;DHT22;2012;49.794;9.722;2023-08-07T13:01:09;14.80;99.90
3996;DHT22;2012;49.794;9.722;2023-08-07T13:03:36;14.80;99.90
3996;DHT22;2012;49.794;9.722;2023-08-07T13:06:03;14.90;99.90
3996;DHT22;2012;49.794;9.722;2023-08-07T13:08:34;15.00;99.90
3996;DHT22;2012;49.794;9.722;2023-08-07T13:11:01;15.00;99.90
3996;DHT22;2012;49.794;9.722;2023-08-07T13:13:28;15.10;99.90
3996;DHT22;2012;49.794;9.722;2023-08-07T13:15:56;15.00;99.90
3996;DHT22;2012;49.794;9.722;2023-08-07T13:18:24;15.10;99.90
3996;DHT22;2012;49.794;9.722;2023-08-07T13:20:51;15.00;99.90
3996;DHT22;2012;49.794;9.722;2023-08-07T13:23:18;15.00;99.90
3996;DHT22;2012;49.794;9.722;2023-08-07T13:25:45;15.10;99.90
3996;DHT22;2012;49.794;9.722;2023-08-07T13:28:11;15.10;99.90
3996;DHT22;2012;49.794;9.722;2023-08-07T13:30:38;15.20;99.90
3996;DHT22;2012;49.794;9.722;2023-08-07T13:33:05;15.30;99.90
3996;DHT22;2012;49.794;9.722;2023-08-07T13:35:32;15.30;99.90
3996;DHT22;2012;49.794;9.722;2023-08-07T13:38:00;15.30;99.90
3996;DHT22;2012;49.794;9.722;2023-08-07T13:40:26;15.30;99.90
3996;DHT22;2012;49.794;9.722;2023-08-07T13:42:53;15.40;99.90
3996;DHT22;2012;49.794;9.722;2023-08-07T13:45:20;15.40;99.90
3996;DHT22;2012;49.794;9.722;2023-08-07T13:47:47;15.50;99.90
3996;DHT22;2012;49.794;9.722;2023-08-07T13:50:14;15.40;99.90
3996;DHT22;2012;49.794;9.722;2023-08-07T13:52:42;15.40;99.90
3996;DHT22;2012;49.794;9.722;2023-08-07T13:55:09;15.40;99.90
3996;DHT22;2012;49.794;9.722;2023-08-07T13:57:55;15.40;99.90
3996;DHT22;2012;49.794;9.722;2023-08-07T14:00:22;15.70;99.90
3996;DHT22;2012;49.794;9.722;2023-08-07T14:02:49;16.30;99.90
3996;DHT22;2012;49.794;9.722;2023-08-07T14:05:16;16.50;99.90
3996;DHT22;2012;49.794;9.722;2023-08-07T14:07:43;16.70;99.90
3996;DHT22;2012;49.794;9.722;2023-08-07T14:10:10;16.90;99.90
3996;DHT22;2012;49.794;9.722;2023-08-07T14:12:37;17.00;99.90
3996;DHT22;2012;49.794;9.722;2023-08-07T14:15:05;17.20;99.90
3996;DHT22;2012;49.794;9.722;2023-08-07T14:17:32;17.10;99.90
3996;DHT22;2012;49.794;9.722;2023-08-07T14:19:59;17.10;99.90
3996;DHT22;2012;49.794;9.722;2023-08-07T14:22:26;17.20;99.90
3996;DHT22;2012;49.794;9.722;2023-08-07T14:24:53;17.00;99.90
3996;DHT22;2012;49.794;9.722;2023-08-07T14:27:20;16.90;99.90
3996;DHT22;2012;49.794;9.722;2023-08-07T14:29:47;16.90;99.90
3996;DHT22;2012;49.794;9.722;2023-08-07T14:32:13;16.90;99.90
3996;DHT22;2012;49.794;9.722;2023-08-07T14:34:40;16.90;99.90
3996;DHT22;2012;49.794;9.722;2023-08-07T14:37:07;16.90;99.90
3996;DHT22;2012;49.794;9.722;2023-08-07T14:39:34;16.70;99.90
3996;DHT22;2012;49.794;9.722;2023-08-07T14:42:01;16.70;99.90
3996;DHT22;2012;49.794;9.722;2023-08-07T14:44:28;16.70;99.90
3996;DHT22;2012;49.794;9.722;2023-08-07T14:46:56;16.80;99.90
3996;DHT22;2012;49.794;9.722;2023-08-07T14:49:22;17.20;99.90
3996;DHT22;2012;49.794;9.722;2023-08-07T14:51:50;17.50;99.90
3996;DHT22;2012;49.794;9.722;2023-08-07T14:54:16;17.60;99.90
3996;DHT22;2012;49.794;9.722;2023-08-07T14:56:43;17.90;99.90
3996;DHT22;2012;49.794;9.722;2023-08-07T14:59:10;17.90;99.90
3996;DHT22;2012;49.794;9.722;2023-08-07T15:01:37;17.90;99.90
3996;DHT22;2012;49.794;9.722;2023-08-07T15:04:04;18.00;99.90
3996;DHT22;2012;49.794;9.722;2023-08-07T15:06:31;18.00;99.90
3996;DHT22;2012;49.794;9.722;2023-08-07T15:08:59;18.10;99.90
3996;DHT22;2012;49.794;9.722;2023-08-07T15:11:26;18.20;99.90
3996;DHT22;2012;49.794;9.722;2023-08-07T15:13:54;18.20;99.90
3996;DHT22;2012;49.794;9.722;2023-08-07T15:16:21;18.10;99.90
3996;DHT22;2012;49.794;9.722;2023-08-07T15:18:47;18.10;99.90
3996;DHT22;2012;49.794;9.722;2023-08-07T15:21:14;18.20;99.90
3996;DHT22;2012;49.794;9.722;2023-08-07T15:23:41;18.30;99.90
3996;DHT22;2012;49.794;9.722;2023-08-07T15:26:08;18.40;99.90
3996;DHT22;2012;49.794;9.722;2023-08-07T15:28:35;18.40;99.90
3996;DHT22;2012;49.794;9.722;2023-08-07T15:31:02;18.40;99.90
3996;DHT22;2012;49.794;9.722;2023-08-07T15:33:29;18.60;99.90
3996;DHT22;2012;49.794;9.722;2023-08-07T15:35:56;18.60;99.90
3996;DHT22;2012;49.794;9.722;2023-08-07T15:38:26;18.70;99.90
3996;DHT22;2012;49.794;9.722;2023-08-07T15:40:55;18.70;99.90
3996;DHT22;2012;49.794;9.722;2023-08-07T15:43:22;18.60;99.90
3996;DHT22;2012;49.794;9.722;2023-08-07T15:45:52;18.70;99.90
3996;DHT22;2012;49.794;9.722;2023-08-07T15:48:20;18.80;99.90
3996;DHT22;2012;49.794;9.722;2023-08-07T15:50:47;18.80;99.90
3996;DHT22;2012;49.794;9.722;2023-08-07T15:53:14;18.80;99.90
3996;DHT22;2012;49.794;9.722;2023-08-07T15:55:41;18.90;99.90
3996;DHT22;2012;49.794;9.722;2023-08-07T15:58:08;18.90;99.90
3996;DHT22;2012;49.794;9.722;2023-08-07T16:00:35;18.80;99.90
3996;DHT22;2012;49.794;9.722;2023-08-07T16:03:06;18.90;99.90
3996;DHT22;2012;49.794;9.722;2023-08-07T16:05:35;18.80;99.90
3996;DHT22;2012;49.794;9.722;2023-08-07T16:08:03;18.90;99.90
3996;DHT22;2012;49.794;9.722;2023-08-07T16:10:31;18.80;99.90
3996;DHT22;2012;49.794;9.722;2023-08-07T16:12:59;18.80;99.90
3996;DHT22;2012;49.794;9.722;2023-08-07T16:15:25;18.50;99.90
3996;DHT22;2012;49.794;9.722;2023-08-07T16:17:53;18.50;99.90
3996;DHT22;2012;49.794;9.722;2023-08-07T16:20:20;18.40;99.90
3996;DHT22;2012;49.794;9.722;2023-08-07T16:22:47;18.40;99.90
3996;DHT22;2012;49.794;9.722;2023-08-07T16:25:15;18.40;99.90
3996;DHT22;2012;49.794;9.722;2023-08-07T16:27:42;18.30;99.90